sensor_id;sensor_type;location;lat;lon;timestamp;P1;durP1;ratioP1;P2;durP2;ratioP2
4365;SDS011;2196;47.422;9.656;2023-12-28T00:02:07;21.17;;;14.80;;
4365;SDS011;2196;47.422;9.656;2023-12-28T00:04:35;24.07;;;15.07;;
4365;SDS011;2196;47.422;9.656;2023-12-28T00:07:03;17.43;;;13.23;;
4365;SDS011;2196;47.422;9.656;2023-12-28T00:09:31;18.50;;;12.87;;
4365;SDS011;2196;47.422;9.656;2023-12-28T00:11:59;20.13;;;12.93;;
4365;SDS011;2196;47.422;9.656;2023-12-28T00:14:26;16.60;;;12.20;;
4365;SDS011;2196;47.422;9.656;2023-12-28T00:16:53;13.70;;;11.27;;
4365;SDS011;2196;47.422;9.656;2023-12-28T00:19:20;17.00;;;11.73;;
4365;SDS011;2196;47.422;9.656;2023-12-28T00:21:48;12.53;;;10.20;;
4365;SDS011;2196;47.422;9.656;2023-12-28T00:24:15;14.93;;;11.03;;
4365;SDS011;2196;47.422;9.656;2023-12-28T00:26:42;11.50;;;9.97;;
4365;SDS011;2196;47.422;9.656;2023-12-28T00:29:09;17.90;;;11.67;;
4365;SDS011;2196;47.422;9.656;2023-12-28T00:31:36;19.07;;;11.73;;
4365;SDS011;2196;47.422;9.656;2023-12-28T00:34:03;21.63;;;12.27;;
4365;SDS011;2196;47.422;9.656;2023-12-28T00:36:30;27.70;;;13.53;;
4365;SDS011;2196;47.422;9.656;2023-12-28T00:38:59;18.50;;;12.70;;
4365;SDS011;2196;47.422;9.656;2023-12-28T00:41:25;18.27;;;12.63;;
4365;SDS011;2196;47.422;9.656;2023-12-28T00:43:52;15.20;;;11.40;;
4365;SDS011;2196;47.422;9.656;2023-12-28T00:46:19;16.77;;;11.63;;
4365;SDS011;2196;47.422;9.656;2023-12-28T00:48:46;18.87;;;10.73;;
4365;SDS011;2196;47.422;9.656;2023-12-28T00:51:13;14.83;;;10.30;;
4365;SDS011;2196;47.422;9.656;2023-12-28T00:53:40;16.03;;;10.77;;
4365;SDS011;2196;47.422;9.656;2023-12-28T00:56:10;16.07;;;11.67;;
4365;SDS011;2196;47.422;9.656;2023-12-28T00:58:38;18.53;;;12.87;;
4365;SDS011;2196;47.422;9.656;2023-12-28T01:01:05;19.73;;;12.23;;
4365;SDS011;2196;47.422;9.656;2023-12-28T01:03:32;15.43;;;12.53;;
4365;SDS011;2196;47.422;9.656;2023-12-28T01:05:59;17.07;;;13.17;;
4365;SDS011;2196;47.422;9.656;2023-12-28T01:08:27;12.93;;;11.53;;
4365;SDS011;2196;47.422;9.656;2023-12-28T01:10:54;17.33;;;13.00;;
4365;SDS011;2196;47.422;9.656;2023-12-28T01:13:22;17.67;;;12.33;;
4365;SDS011;2196;47.422;9.656;2023-12-28T01:15:49;16.90;;;12.10;;
4365;SDS011;2196;47.422;9.656;2023-12-28T01:18:16;19.37;;;12.67;;
4365;SDS011;2196;47.422;9.656;2023-12-28T01:20:43;12.87;;;11.63;;
4365;SDS011;2196;47.422;9.656;2023-12-28T01:23:10;16.07;;;12.13;;
4365;SDS011;2196;47.422;9.656;2023-12-28T01:25:37;19.20;;;13.20;;
4365;SDS011;2196;47.422;9.656;2023-12-28T01:28:04;17.00;;;12.03;;
4365;SDS011;2196;47.422;9.656;2023-12-28T01:30:32;14.07;;;10.97;;
4365;SDS011;2196;47.422;9.656;2023-12-28T01:32:59;17.43;;;11.63;;
4365;SDS011;2196;47.422;9.656;2023-12-28T01:35:26;17.57;;;12.80;;
4365;SDS011;2196;47.422;9.656;2023-12-28T01:37:53;16.90;;;12.07;;
4365;SDS011;2196;47.422;9.656;2023-12-28T01:40:22;16.27;;;11.37;;
4365;SDS011;2196;47.422;9.656;2023-12-28T01:42:49;15.43;;;11.40;;
4365;SDS011;2196;47.422;9.656;2023-12-28T01:45:16;18.60;;;12.13;;
4365;SDS011;2196;47.422;9.656;2023-12-28T01:47:44;18.33;;;12.00;;
4365;SDS011;2196;47.422;9.656;2023-12-28T01:50:13;13.87;;;11.87;;
4365;SDS011;2196;47.422;9.656;2023-12-28T01:52:40;16.23;;;12.27;;
4365;SDS011;2196;47.422;9.656;2023-12-28T01:55:07;15.67;;;12.27;;
4365;SDS011;2196;47.422;9.656;2023-12-28T01:57:35;15.13;;;11.97;;
4365;SDS011;2196;47.422;9.656;2023-12-28T02:00:02;16.93;;;11.63;;
4365;SDS011;2196;47.422;9.656;2023-12-28T02:02:30;19.60;;;12.50;;
4365;SDS011;2196;47.422;9.656;2023-12-28T02:04:58;16.23;;;11.63;;
4365;SDS011;2196;47.422;9.656;2023-12-28T02:07:26;17.13;;;11.43;;
4365;SDS011;2196;47.422;9.656;2023-12-28T02:09:55;14.30;;;11.00;;
4365;SDS011;2196;47.422;9.656;2023-12-28T02:12:22;13.43;;;10.27;;
4365;SDS011;2196;47.422;9.656;2023-12-28T02:14:49;14.83;;;10.10;;
4365;SDS011;2196;47.422;9.656;2023-12-28T02:17:18;15.37;;;10.60;;
4365;SDS011;2196;47.422;9.656;2023-12-28T02:19:50;15.10;;;10.33;;
4365;SDS011;2196;47.422;9.656;2023-12-28T02:22:20;13.33;;;10.63;;
4365;SDS011;2196;47.422;9.656;2023-12-28T02:25:05;11.87;;;10.33;;
4365;SDS011;2196;47.422;9.656;2023-12-28T02:27:33;18.37;;;10.80;;
4365;SDS011;2196;47.422;9.656;2023-12-28T02:30:01;15.20;;;9.63;;
4365;SDS011;2196;47.422;9.656;2023-12-28T02:32:33;12.27;;;10.20;;
4365;SDS011;2196;47.422;9.656;2023-12-28T02:35:09;13.30;;;10.07;;
4365;SDS011;2196;47.422;9.656;2023-12-28T02:37:43;15.33;;;10.43;;
4365;SDS011;2196;47.422;9.656;2023-12-28T02:40:15;13.43;;;10.43;;
4365;SDS011;2196;47.422;9.656;2023-12-28T02:42:43;14.90;;;10.07;;
4365;SDS011;2196;47.422;9.656;2023-12-28T02:45:10;14.53;;;9.67;;
4365;SDS011;2196;47.422;9.656;2023-12-28T02:47:37;12.37;;;9.13;;
4365;SDS011;2196;47.422;9.656;2023-12-28T02:50:04;16.97;;;9.77;;
4365;SDS011;2196;47.422;9.656;2023-12-28T02:52:32;11.60;;;9.30;;
4365;SDS011;2196;47.422;9.656;2023-12-28T02:54:59;15.03;;;8.83;;
4365;SDS011;2196;47.422;9.656;2023-12-28T02:57:27;13.70;;;8.83;;
4365;SDS011;2196;47.422;9.656;2023-12-28T02:59:54;13.40;;;9.37;;
4365;SDS011;2196;47.422;9.656;2023-12-28T03:02:22;8.93;;;8.03;;
4365;SDS011;2196;47.422;9.656;2023-12-28T03:04:49;11.27;;;7.43;;
4365;SDS011;2196;47.422;9.656;2023-12-28T03:07:16;10.47;;;8.87;;
4365;SDS011;2196;47.422;9.656;2023-12-28T03:09:43;9.73;;;7.80;;
4365;SDS011;2196;47.422;9.656;2023-12-28T03:12:10;10.00;;;8.10;;
4365;SDS011;2196;47.422;9.656;2023-12-28T03:14:38;14.60;;;8.07;;
4365;SDS011;2196;47.422;9.656;2023-12-28T03:17:05;14.80;;;8.70;;
4365;SDS011;2196;47.422;9.656;2023-12-28T03:19:33;12.43;;;8.77;;
4365;SDS011;2196;47.422;9.656;2023-12-28T03:22:00;10.97;;;8.17;;
4365;SDS011;2196;47.422;9.656;2023-12-28T03:24:27;9.87;;;7.37;;
4365;SDS011;2196;47.422;9.656;2023-12-28T03:26:55;11.67;;;8.27;;
4365;SDS011;2196;47.422;9.656;2023-12-28T03:29:23;9.90;;;7.37;;
4365;SDS011;2196;47.422;9.656;2023-12-28T03:31:51;11.27;;;7.87;;
4365;SDS011;2196;47.422;9.656;2023-12-28T03:34:21;11.80;;;8.60;;
4365;SDS011;2196;47.422;9.656;2023-12-28T03:36:49;12.03;;;8.17;;
4365;SDS011;2196;47.422;9.656;2023-12-28T03:39:16;10.43;;;7.93;;
4365;SDS011;2196;47.422;9.656;2023-12-28T03:41:42;16.27;;;8.37;;
4365;SDS011;2196;47.422;9.656;2023-12-28T03:44:09;9.97;;;8.77;;
4365;SDS011;2196;47.422;9.656;2023-12-28T03:46:36;11.43;;;8.97;;
4365;SDS011;2196;47.422;9.656;2023-12-28T03:49:05;11.13;;;8.60;;
4365;SDS011;2196;47.422;9.656;2023-12-28T03:51:31;8.90;;;7.97;;
4365;SDS011;2196;47.422;9.656;2023-12-28T03:53:58;10.57;;;8.40;;
4365;SDS011;2196;47.422;9.656;2023-12-28T03:56:26;13.13;;;8.70;;
4365;SDS011;2196;47.422;9.656;2023-12-28T03:58:54;12.03;;;8.33;;
4365;SDS011;2196;47.422;9.656;2023-12-28T04:01:21;12.40;;;8.63;;
4365;SDS011;2196;47.422;9.656;2023-12-28T04:03:49;11.17;;;7.87;;
4365;SDS011;2196;47.422;9.656;2023-12-28T04:06:17;11.70;;;9.60;;
4365;SDS011;2196;47.422;9.656;2023-12-28T04:08:44;7.53;;;6.10;;
4365;SDS011;2196;47.422;9.656;2023-12-28T04:11:11;6.67;;;5.43;;
4365;SDS011;2196;47.422;9.656;2023-12-28T04:13:38;7.90;;;6.10;;
4365;SDS011;2196;47.422;9.656;2023-12-28T04:16:05;5.77;;;4.87;;
4365;SDS011;2196;47.422;9.656;2023-12-28T04:18:34;6.07;;;5.07;;
4365;SDS011;2196;47.422;9.656;2023-12-28T04:21:01;4.90;;;4.50;;
4365;SDS011;2196;47.422;9.656;2023-12-28T04:23:29;6.70;;;5.00;;
4365;SDS011;2196;47.422;9.656;2023-12-28T04:25:58;5.90;;;5.13;;
4365;SDS011;2196;47.422;9.656;2023-12-28T04:28:24;5.20;;;4.77;;
4365;SDS011;2196;47.422;9.656;2023-12-28T04:30:51;7.80;;;4.67;;
4365;SDS011;2196;47.422;9.656;2023-12-28T04:33:18;5.30;;;4.80;;
4365;SDS011;2196;47.422;9.656;2023-12-28T04:35:45;8.53;;;5.00;;
4365;SDS011;2196;47.422;9.656;2023-12-28T04:38:13;8.30;;;5.57;;
4365;SDS011;2196;47.422;9.656;2023-12-28T04:40:41;6.90;;;5.13;;
4365;SDS011;2196;47.422;9.656;2023-12-28T04:43:08;6.27;;;5.37;;
4365;SDS011;2196;47.422;9.656;2023-12-28T04:45:35;7.07;;;5.27;;
4365;SDS011;2196;47.422;9.656;2023-12-28T04:48:03;8.00;;;5.53;;
4365;SDS011;2196;47.422;9.656;2023-12-28T04:50:31;7.03;;;4.57;;
4365;SDS011;2196;47.422;9.656;2023-12-28T04:52:58;8.77;;;4.93;;
4365;SDS011;2196;47.422;9.656;2023-12-28T04:55:26;12.03;;;5.97;;
4365;SDS011;2196;47.422;9.656;2023-12-28T04:57:54;8.57;;;5.73;;
4365;SDS011;2196;47.422;9.656;2023-12-28T05:00:22;7.43;;;5.80;;
4365;SDS011;2196;47.422;9.656;2023-12-28T05:02:49;6.43;;;5.03;;
4365;SDS011;2196;47.422;9.656;2023-12-28T05:05:16;8.03;;;5.10;;
4365;SDS011;2196;47.422;9.656;2023-12-28T05:07:43;4.80;;;4.10;;
4365;SDS011;2196;47.422;9.656;2023-12-28T05:10:10;4.30;;;3.77;;
4365;SDS011;2196;47.422;9.656;2023-12-28T05:12:37;5.80;;;4.30;;
4365;SDS011;2196;47.422;9.656;2023-12-28T05:15:06;6.93;;;4.00;;
4365;SDS011;2196;47.422;9.656;2023-12-28T05:17:33;4.00;;;3.73;;
4365;SDS011;2196;47.422;9.656;2023-12-28T05:20:00;3.97;;;3.67;;
4365;SDS011;2196;47.422;9.656;2023-12-28T05:22:27;5.17;;;4.07;;
4365;SDS011;2196;47.422;9.656;2023-12-28T05:24:54;3.93;;;3.17;;
4365;SDS011;2196;47.422;9.656;2023-12-28T05:27:21;3.47;;;2.67;;
4365;SDS011;2196;47.422;9.656;2023-12-28T05:29:48;3.27;;;2.97;;
4365;SDS011;2196;47.422;9.656;2023-12-28T05:32:16;6.93;;;3.83;;
4365;SDS011;2196;47.422;9.656;2023-12-28T05:34:43;4.67;;;3.73;;
4365;SDS011;2196;47.422;9.656;2023-12-28T05:37:10;3.83;;;3.33;;
4365;SDS011;2196;47.422;9.656;2023-12-28T05:39:37;3.30;;;3.00;;
4365;SDS011;2196;47.422;9.656;2023-12-28T05:42:04;3.37;;;3.07;;
4365;SDS011;2196;47.422;9.656;2023-12-28T05:44:31;5.00;;;3.37;;
4365;SDS011;2196;47.422;9.656;2023-12-28T05:46:59;3.00;;;2.70;;
4365;SDS011;2196;47.422;9.656;2023-12-28T05:49:27;5.57;;;4.53;;
4365;SDS011;2196;47.422;9.656;2023-12-28T05:51:55;4.07;;;3.70;;
4365;SDS011;2196;47.422;9.656;2023-12-28T05:54:26;6.67;;;4.43;;
4365;SDS011;2196;47.422;9.656;2023-12-28T05:56:53;5.47;;;4.87;;
4365;SDS011;2196;47.422;9.656;2023-12-28T05:59:20;4.77;;;4.10;;
4365;SDS011;2196;47.422;9.656;2023-12-28T06:01:47;4.53;;;4.03;;
4365;SDS011;2196;47.422;9.656;2023-12-28T06:04:14;4.60;;;3.87;;
4365;SDS011;2196;47.422;9.656;2023-12-28T06:06:43;3.30;;;2.77;;
4365;SDS011;2196;47.422;9.656;2023-12-28T06:09:10;2.63;;;2.50;;
4365;SDS011;2196;47.422;9.656;2023-12-28T06:11:37;3.17;;;2.97;;
4365;SDS011;2196;47.422;9.656;2023-12-28T06:14:04;3.00;;;2.67;;
4365;SDS011;2196;47.422;9.656;2023-12-28T06:16:31;6.23;;;5.10;;
4365;SDS011;2196;47.422;9.656;2023-12-28T06:18:58;8.27;;;3.80;;
4365;SDS011;2196;47.422;9.656;2023-12-28T06:21:26;5.10;;;4.60;;
4365;SDS011;2196;47.422;9.656;2023-12-28T06:23:56;4.73;;;3.73;;
4365;SDS011;2196;47.422;9.656;2023-12-28T06:26:23;3.53;;;3.00;;
4365;SDS011;2196;47.422;9.656;2023-12-28T06:28:50;2.97;;;2.83;;
4365;SDS011;2196;47.422;9.656;2023-12-28T06:31:17;3.03;;;2.83;;
4365;SDS011;2196;47.422;9.656;2023-12-28T06:33:44;3.97;;;2.53;;
4365;SDS011;2196;47.422;9.656;2023-12-28T06:36:11;2.70;;;2.50;;
4365;SDS011;2196;47.422;9.656;2023-12-28T06:38:38;2.87;;;1.83;;
4365;SDS011;2196;47.422;9.656;2023-12-28T06:41:13;2.10;;;1.37;;
4365;SDS011;2196;47.422;9.656;2023-12-28T06:43:40;2.43;;;1.97;;
4365;SDS011;2196;47.422;9.656;2023-12-28T06:46:07;1.73;;;1.40;;
4365;SDS011;2196;47.422;9.656;2023-12-28T06:48:34;1.50;;;1.20;;
4365;SDS011;2196;47.422;9.656;2023-12-28T06:51:01;2.07;;;1.13;;
4365;SDS011;2196;47.422;9.656;2023-12-28T06:53:28;1.00;;;1.00;;
4365;SDS011;2196;47.422;9.656;2023-12-28T06:55:55;1.37;;;1.10;;
4365;SDS011;2196;47.422;9.656;2023-12-28T06:58:23;1.07;;;0.90;;
4365;SDS011;2196;47.422;9.656;2023-12-28T07:00:50;0.60;;;0.60;;
4365;SDS011;2196;47.422;9.656;2023-12-28T07:03:17;2.63;;;0.80;;
4365;SDS011;2196;47.422;9.656;2023-12-28T07:05:45;4.73;;;3.30;;
4365;SDS011;2196;47.422;9.656;2023-12-28T07:08:12;6.97;;;3.40;;
4365;SDS011;2196;47.422;9.656;2023-12-28T07:10:39;0.77;;;0.70;;
4365;SDS011;2196;47.422;9.656;2023-12-28T07:13:06;1.40;;;1.30;;
4365;SDS011;2196;47.422;9.656;2023-12-28T07:15:35;1.40;;;1.30;;
4365;SDS011;2196;47.422;9.656;2023-12-28T07:18:02;0.90;;;0.90;;
4365;SDS011;2196;47.422;9.656;2023-12-28T07:20:29;1.83;;;1.73;;
4365;SDS011;2196;47.422;9.656;2023-12-28T07:22:56;2.50;;;1.20;;
4365;SDS011;2196;47.422;9.656;2023-12-28T07:25:23;4.53;;;1.93;;
4365;SDS011;2196;47.422;9.656;2023-12-28T07:27:50;3.80;;;1.87;;
4365;SDS011;2196;47.422;9.656;2023-12-28T07:30:17;2.97;;;2.77;;
4365;SDS011;2196;47.422;9.656;2023-12-28T07:32:45;3.30;;;3.10;;
4365;SDS011;2196;47.422;9.656;2023-12-28T07:35:12;10.20;;;6.40;;
4365;SDS011;2196;47.422;9.656;2023-12-28T07:37:39;2.80;;;2.60;;
4365;SDS011;2196;47.422;9.656;2023-12-28T07:40:06;2.37;;;2.17;;
4365;SDS011;2196;47.422;9.656;2023-12-28T07:42:33;3.53;;;3.03;;
4365;SDS011;2196;47.422;9.656;2023-12-28T07:45:00;3.58;;;3.38;;
4365;SDS011;2196;47.422;9.656;2023-12-28T07:47:26;1.70;;;1.33;;
4365;SDS011;2196;47.422;9.656;2023-12-28T07:49:55;4.07;;;1.60;;
4365;SDS011;2196;47.422;9.656;2023-12-28T07:52:22;2.27;;;2.17;;
4365;SDS011;2196;47.422;9.656;2023-12-28T07:54:49;1.27;;;1.17;;
4365;SDS011;2196;47.422;9.656;2023-12-28T07:57:16;2.07;;;1.63;;
4365;SDS011;2196;47.422;9.656;2023-12-28T07:59:43;4.03;;;2.50;;
4365;SDS011;2196;47.422;9.656;2023-12-28T08:02:10;2.73;;;2.03;;
4365;SDS011;2196;47.422;9.656;2023-12-28T08:04:37;2.70;;;2.23;;
4365;SDS011;2196;47.422;9.656;2023-12-28T08:07:05;1.60;;;1.50;;
4365;SDS011;2196;47.422;9.656;2023-12-28T08:09:33;1.17;;;1.17;;
4365;SDS011;2196;47.422;9.656;2023-12-28T08:12:01;0.50;;;0.50;;
4365;SDS011;2196;47.422;9.656;2023-12-28T08:14:28;2.33;;;0.50;;
4365;SDS011;2196;47.422;9.656;2023-12-28T08:16:55;1.17;;;0.60;;
4365;SDS011;2196;47.422;9.656;2023-12-28T08:19:22;0.60;;;0.60;;
4365;SDS011;2196;47.422;9.656;2023-12-28T08:21:49;2.27;;;0.53;;
4365;SDS011;2196;47.422;9.656;2023-12-28T08:24:17;0.87;;;0.87;;
4365;SDS011;2196;47.422;9.656;2023-12-28T08:26:44;2.20;;;2.00;;
4365;SDS011;2196;47.422;9.656;2023-12-28T08:29:12;5.67;;;4.50;;
4365;SDS011;2196;47.422;9.656;2023-12-28T08:31:39;7.40;;;5.03;;
4365;SDS011;2196;47.422;9.656;2023-12-28T08:34:09;6.10;;;4.00;;
4365;SDS011;2196;47.422;9.656;2023-12-28T08:36:36;11.23;;;6.83;;
4365;SDS011;2196;47.422;9.656;2023-12-28T08:39:03;8.63;;;4.73;;
4365;SDS011;2196;47.422;9.656;2023-12-28T08:41:31;4.73;;;4.20;;
4365;SDS011;2196;47.422;9.656;2023-12-28T08:43:58;5.47;;;4.87;;
4365;SDS011;2196;47.422;9.656;2023-12-28T08:46:25;8.00;;;5.53;;
4365;SDS011;2196;47.422;9.656;2023-12-28T08:48:53;6.93;;;4.97;;
4365;SDS011;2196;47.422;9.656;2023-12-28T08:51:20;6.73;;;5.00;;
4365;SDS011;2196;47.422;9.656;2023-12-28T08:53:47;4.17;;;3.87;;
4365;SDS011;2196;47.422;9.656;2023-12-28T08:56:18;5.10;;;4.60;;
4365;SDS011;2196;47.422;9.656;2023-12-28T08:58:48;5.17;;;4.30;;
4365;SDS011;2196;47.422;9.656;2023-12-28T09:01:17;5.27;;;4.63;;
4365;SDS011;2196;47.422;9.656;2023-12-28T09:03:47;7.10;;;5.43;;
4365;SDS011;2196;47.422;9.656;2023-12-28T09:06:15;6.47;;;5.47;;
4365;SDS011;2196;47.422;9.656;2023-12-28T09:08:43;7.63;;;7.00;;
4365;SDS011;2196;47.422;9.656;2023-12-28T09:11:11;9.50;;;5.57;;
4365;SDS011;2196;47.422;9.656;2023-12-28T09:13:38;10.40;;;6.97;;
4365;SDS011;2196;47.422;9.656;2023-12-28T09:16:09;11.60;;;7.33;;
4365;SDS011;2196;47.422;9.656;2023-12-28T09:18:37;26.87;;;13.23;;
4365;SDS011;2196;47.422;9.656;2023-12-28T09:21:04;18.60;;;10.47;;
4365;SDS011;2196;47.422;9.656;2023-12-28T09:23:32;19.07;;;10.10;;
4365;SDS011;2196;47.422;9.656;2023-12-28T09:26:00;15.87;;;10.70;;
4365;SDS011;2196;47.422;9.656;2023-12-28T09:28:29;14.97;;;7.97;;
4365;SDS011;2196;47.422;9.656;2023-12-28T09:30:56;12.57;;;7.03;;
4365;SDS011;2196;47.422;9.656;2023-12-28T09:33:24;16.37;;;8.63;;
4365;SDS011;2196;47.422;9.656;2023-12-28T09:35:51;13.23;;;7.33;;
4365;SDS011;2196;47.422;9.656;2023-12-28T09:38:19;10.90;;;6.50;;
4365;SDS011;2196;47.422;9.656;2023-12-28T09:40:46;10.57;;;5.73;;
4365;SDS011;2196;47.422;9.656;2023-12-28T09:43:19;6.03;;;4.67;;
4365;SDS011;2196;47.422;9.656;2023-12-28T09:45:48;6.43;;;4.20;;
4365;SDS011;2196;47.422;9.656;2023-12-28T09:48:15;4.80;;;2.90;;
4365;SDS011;2196;47.422;9.656;2023-12-28T09:50:45;4.07;;;2.43;;
4365;SDS011;2196;47.422;9.656;2023-12-28T09:53:15;2.33;;;2.13;;
4365;SDS011;2196;47.422;9.656;2023-12-28T09:55:42;2.83;;;1.67;;
4365;SDS011;2196;47.422;9.656;2023-12-28T09:58:09;3.20;;;1.73;;
4365;SDS011;2196;47.422;9.656;2023-12-28T10:00:38;2.90;;;1.80;;
4365;SDS011;2196;47.422;9.656;2023-12-28T10:03:05;1.93;;;1.53;;
4365;SDS011;2196;47.422;9.656;2023-12-28T10:05:32;5.10;;;3.87;;
4365;SDS011;2196;47.422;9.656;2023-12-28T10:08:01;2.80;;;2.00;;
4365;SDS011;2196;47.422;9.656;2023-12-28T10:10:28;3.03;;;2.73;;
4365;SDS011;2196;47.422;9.656;2023-12-28T10:12:55;4.13;;;3.77;;
4365;SDS011;2196;47.422;9.656;2023-12-28T10:15:22;4.23;;;2.63;;
4365;SDS011;2196;47.422;9.656;2023-12-28T10:17:51;5.57;;;3.10;;
4365;SDS011;2196;47.422;9.656;2023-12-28T10:20:18;3.93;;;3.63;;
4365;SDS011;2196;47.422;9.656;2023-12-28T10:22:45;3.93;;;3.47;;
4365;SDS011;2196;47.422;9.656;2023-12-28T10:25:13;4.10;;;3.73;;
4365;SDS011;2196;47.422;9.656;2023-12-28T10:27:41;3.57;;;3.07;;
4365;SDS011;2196;47.422;9.656;2023-12-28T10:30:09;3.00;;;2.60;;
4365;SDS011;2196;47.422;9.656;2023-12-28T10:32:39;2.53;;;2.43;;
4365;SDS011;2196;47.422;9.656;2023-12-28T10:35:06;4.47;;;3.10;;
4365;SDS011;2196;47.422;9.656;2023-12-28T10:37:34;3.93;;;2.20;;
4365;SDS011;2196;47.422;9.656;2023-12-28T10:40:05;4.50;;;3.43;;
4365;SDS011;2196;47.422;9.656;2023-12-28T10:42:37;6.03;;;5.43;;
4365;SDS011;2196;47.422;9.656;2023-12-28T10:45:11;5.23;;;4.83;;
4365;SDS011;2196;47.422;9.656;2023-12-28T10:47:42;5.33;;;4.90;;
4365;SDS011;2196;47.422;9.656;2023-12-28T10:50:11;6.40;;;4.40;;
4365;SDS011;2196;47.422;9.656;2023-12-28T10:52:39;5.10;;;4.70;;
4365;SDS011;2196;47.422;9.656;2023-12-28T10:55:16;6.93;;;5.97;;
4365;SDS011;2196;47.422;9.656;2023-12-28T10:57:59;7.80;;;5.77;;
4365;SDS011;2196;47.422;9.656;2023-12-28T11:00:33;7.40;;;6.73;;
4365;SDS011;2196;47.422;9.656;2023-12-28T11:03:06;8.73;;;7.97;;
4365;SDS011;2196;47.422;9.656;2023-12-28T11:05:37;8.77;;;7.30;;
4365;SDS011;2196;47.422;9.656;2023-12-28T11:08:09;9.30;;;8.37;;
4365;SDS011;2196;47.422;9.656;2023-12-28T11:10:40;10.40;;;8.43;;
4365;SDS011;2196;47.422;9.656;2023-12-28T11:13:09;9.43;;;8.53;;
4365;SDS011;2196;47.422;9.656;2023-12-28T11:15:37;8.83;;;8.03;;
4365;SDS011;2196;47.422;9.656;2023-12-28T11:18:05;8.83;;;7.93;;
4365;SDS011;2196;47.422;9.656;2023-12-28T11:20:32;9.67;;;8.67;;
4365;SDS011;2196;47.422;9.656;2023-12-28T11:23:00;9.37;;;8.47;;
4365;SDS011;2196;47.422;9.656;2023-12-28T11:25:30;10.40;;;8.90;;
4365;SDS011;2196;47.422;9.656;2023-12-28T11:27:59;13.33;;;8.60;;
4365;SDS011;2196;47.422;9.656;2023-12-28T11:30:28;8.87;;;7.97;;
4365;SDS011;2196;47.422;9.656;2023-12-28T11:32:55;7.93;;;7.17;;
4365;SDS011;2196;47.422;9.656;2023-12-28T11:35:23;9.10;;;8.17;;
4365;SDS011;2196;47.422;9.656;2023-12-28T11:37:58;7.30;;;6.63;;
4365;SDS011;2196;47.422;9.656;2023-12-28T11:40:28;8.13;;;7.53;;
4365;SDS011;2196;47.422;9.656;2023-12-28T11:42:55;8.63;;;7.83;;
4365;SDS011;2196;47.422;9.656;2023-12-28T11:45:22;12.23;;;9.30;;
4365;SDS011;2196;47.422;9.656;2023-12-28T11:47:59;10.33;;;8.37;;
4365;SDS011;2196;47.422;9.656;2023-12-28T11:50:27;13.27;;;10.57;;
4365;SDS011;2196;47.422;9.656;2023-12-28T11:52:54;12.93;;;10.43;;
4365;SDS011;2196;47.422;9.656;2023-12-28T11:55:21;12.87;;;10.60;;
4365;SDS011;2196;47.422;9.656;2023-12-28T11:57:48;11.37;;;9.67;;
4365;SDS011;2196;47.422;9.656;2023-12-28T12:00:16;11.27;;;10.20;;
4365;SDS011;2196;47.422;9.656;2023-12-28T12:02:45;13.13;;;11.10;;
4365;SDS011;2196;47.422;9.656;2023-12-28T12:05:14;15.90;;;10.20;;
4365;SDS011;2196;47.422;9.656;2023-12-28T12:07:41;11.53;;;10.33;;
4365;SDS011;2196;47.422;9.656;2023-12-28T12:10:13;11.10;;;10.00;;
4365;SDS011;2196;47.422;9.656;2023-12-28T12:12:41;13.70;;;10.67;;
4365;SDS011;2196;47.422;9.656;2023-12-28T12:15:09;24.50;;;19.20;;
4365;SDS011;2196;47.422;9.656;2023-12-28T12:17:36;24.60;;;20.53;;
4365;SDS011;2196;47.422;9.656;2023-12-28T12:20:04;21.10;;;17.63;;
4365;SDS011;2196;47.422;9.656;2023-12-28T12:22:33;16.20;;;14.50;;
4365;SDS011;2196;47.422;9.656;2023-12-28T12:25:01;15.00;;;13.30;;
4365;SDS011;2196;47.422;9.656;2023-12-28T12:27:30;14.00;;;11.33;;
4365;SDS011;2196;47.422;9.656;2023-12-28T12:29:57;16.43;;;14.33;;
4365;SDS011;2196;47.422;9.656;2023-12-28T12:32:24;14.20;;;12.53;;
4365;SDS011;2196;47.422;9.656;2023-12-28T12:34:51;19.10;;;13.70;;
4365;SDS011;2196;47.422;9.656;2023-12-28T12:37:19;16.17;;;12.00;;
4365;SDS011;2196;47.422;9.656;2023-12-28T12:39:47;12.70;;;11.40;;
4365;SDS011;2196;47.422;9.656;2023-12-28T12:42:14;14.63;;;11.50;;
4365;SDS011;2196;47.422;9.656;2023-12-28T12:44:42;12.90;;;11.37;;
4365;SDS011;2196;47.422;9.656;2023-12-28T12:47:09;12.13;;;10.50;;
4365;SDS011;2196;47.422;9.656;2023-12-28T12:49:36;16.40;;;11.90;;
4365;SDS011;2196;47.422;9.656;2023-12-28T12:52:03;11.97;;;10.77;;
4365;SDS011;2196;47.422;9.656;2023-12-28T12:54:33;15.30;;;12.17;;
4365;SDS011;2196;47.422;9.656;2023-12-28T12:57:01;17.33;;;12.33;;
4365;SDS011;2196;47.422;9.656;2023-12-28T12:59:29;20.47;;;11.93;;
4365;SDS011;2196;47.422;9.656;2023-12-28T13:01:57;14.67;;;11.13;;
4365;SDS011;2196;47.422;9.656;2023-12-28T13:04:24;10.57;;;8.93;;
4365;SDS011;2196;47.422;9.656;2023-12-28T13:06:50;10.60;;;8.63;;
4365;SDS011;2196;47.422;9.656;2023-12-28T13:09:17;12.73;;;8.43;;
4365;SDS011;2196;47.422;9.656;2023-12-28T13:11:45;16.10;;;9.33;;
4365;SDS011;2196;47.422;9.656;2023-12-28T13:14:16;11.97;;;7.20;;
4365;SDS011;2196;47.422;9.656;2023-12-28T13:16:43;9.53;;;7.07;;
4365;SDS011;2196;47.422;9.656;2023-12-28T13:19:13;7.00;;;6.03;;
4365;SDS011;2196;47.422;9.656;2023-12-28T13:21:40;4.47;;;4.07;;
4365;SDS011;2196;47.422;9.656;2023-12-28T13:24:08;6.00;;;5.20;;
4365;SDS011;2196;47.422;9.656;2023-12-28T13:26:35;5.07;;;3.80;;
4365;SDS011;2196;47.422;9.656;2023-12-28T13:29:02;3.97;;;3.67;;
4365;SDS011;2196;47.422;9.656;2023-12-28T13:31:30;2.87;;;2.67;;
4365;SDS011;2196;47.422;9.656;2023-12-28T13:33:57;3.63;;;3.33;;
4365;SDS011;2196;47.422;9.656;2023-12-28T13:36:24;4.80;;;4.37;;
4365;SDS011;2196;47.422;9.656;2023-12-28T13:38:52;8.80;;;3.77;;
4365;SDS011;2196;47.422;9.656;2023-12-28T13:41:19;5.63;;;4.40;;
4365;SDS011;2196;47.422;9.656;2023-12-28T13:43:45;9.07;;;5.67;;
4365;SDS011;2196;47.422;9.656;2023-12-28T13:46:12;9.13;;;7.27;;
4365;SDS011;2196;47.422;9.656;2023-12-28T13:48:41;9.77;;;7.03;;
4365;SDS011;2196;47.422;9.656;2023-12-28T13:51:08;10.13;;;6.90;;
4365;SDS011;2196;47.422;9.656;2023-12-28T13:53:35;16.80;;;7.90;;
4365;SDS011;2196;47.422;9.656;2023-12-28T13:56:05;9.80;;;7.03;;
4365;SDS011;2196;47.422;9.656;2023-12-28T13:58:33;13.10;;;8.47;;
4365;SDS011;2196;47.422;9.656;2023-12-28T14:01:00;10.40;;;8.63;;
4365;SDS011;2196;47.422;9.656;2023-12-28T14:03:27;11.57;;;8.23;;
4365;SDS011;2196;47.422;9.656;2023-12-28T14:05:56;11.33;;;7.77;;
4365;SDS011;2196;47.422;9.656;2023-12-28T14:08:23;19.53;;;11.70;;
4365;SDS011;2196;47.422;9.656;2023-12-28T14:10:50;13.97;;;10.50;;
4365;SDS011;2196;47.422;9.656;2023-12-28T14:13:16;17.40;;;12.63;;
4365;SDS011;2196;47.422;9.656;2023-12-28T14:15:44;14.43;;;10.70;;
4365;SDS011;2196;47.422;9.656;2023-12-28T14:18:11;20.57;;;11.77;;
4365;SDS011;2196;47.422;9.656;2023-12-28T14:20:38;15.47;;;10.83;;
4365;SDS011;2196;47.422;9.656;2023-12-28T14:23:07;18.00;;;10.73;;
4365;SDS011;2196;47.422;9.656;2023-12-28T14:25:34;17.10;;;11.43;;
4365;SDS011;2196;47.422;9.656;2023-12-28T14:28:02;18.77;;;12.83;;
4365;SDS011;2196;47.422;9.656;2023-12-28T14:30:30;14.47;;;11.97;;
4365;SDS011;2196;47.422;9.656;2023-12-28T14:32:57;14.57;;;11.30;;
4365;SDS011;2196;47.422;9.656;2023-12-28T14:35:25;13.77;;;11.43;;
4365;SDS011;2196;47.422;9.656;2023-12-28T14:37:53;11.90;;;9.83;;
4365;SDS011;2196;47.422;9.656;2023-12-28T14:40:21;12.67;;;11.37;;
4365;SDS011;2196;47.422;9.656;2023-12-28T14:42:48;14.03;;;10.13;;
4365;SDS011;2196;47.422;9.656;2023-12-28T14:45:15;16.10;;;11.43;;
4365;SDS011;2196;47.422;9.656;2023-12-28T14:47:43;9.73;;;8.73;;
4365;SDS011;2196;47.422;9.656;2023-12-28T14:50:10;13.70;;;10.30;;
4365;SDS011;2196;47.422;9.656;2023-12-28T14:52:37;12.13;;;10.93;;
4365;SDS011;2196;47.422;9.656;2023-12-28T14:55:07;10.93;;;9.93;;
4365;SDS011;2196;47.422;9.656;2023-12-28T14:57:36;11.07;;;10.07;;
4365;SDS011;2196;47.422;9.656;2023-12-28T15:00:03;10.73;;;9.63;;
4365;SDS011;2196;47.422;9.656;2023-12-28T15:02:31;11.03;;;8.97;;
4365;SDS011;2196;47.422;9.656;2023-12-28T15:04:58;11.33;;;9.33;;
4365;SDS011;2196;47.422;9.656;2023-12-28T15:07:25;12.73;;;9.40;;
4365;SDS011;2196;47.422;9.656;2023-12-28T15:09:52;11.50;;;9.53;;